Time;durP1;ratioP1;P1;durP2;ratioP2;P2;SDS_P1;SDS_P2;PMS_P1;PMS_P2;Temp;Humidity;BMP_temperature;BMP_pressure;BME280_temperature;BME280_humidity;BME280_pressure;Samples;Min_cycle;Max_cycle;Signal;HPM_P1;HPM_P2
2022/05/04 00:01:40;;;;;;;;;20.80;17.40;;;;;15.96;41.70;99374.69;5053112;28;8884;-75
2022/05/04 00:04:09;;;;;;;;;18.20;15.80;;;;;15.90;41.86;99380.97;5067984;28;8862;-76
2022/05/04 00:06:38;;;;;;;;;18.80;16.00;;;;;15.76;42.34;99383.94;5031997;28;8843;-76
2022/05/04 00:09:06;;;;;;;;;14.40;13.40;;;;;15.79;42.30;99378.59;5052087;28;8861;-76
2022/05/04 00:11:36;;;;;;;;;17.80;15.40;;;;;15.89;41.96;99384.47;5003173;28;8928;-77
2022/05/04 00:14:06;;;;;;;;;15.80;15.80;;;;;15.97;41.74;99381.66;5043176;28;8978;-77
2022/05/04 00:16:34;;;;;;;;;14.40;14.20;;;;;16.06;41.89;99380.56;5053362;28;8848;-78
2022/05/04 00:19:03;;;;;;;;;21.40;18.00;;;;;16.10;42.46;99384.84;5070626;28;8845;-78
2022/05/04 00:21:31;;;;;;;;;36.50;33.75;;;;;16.12;43.36;99380.41;5067987;28;8897;-76
2022/05/04 00:24:00;;;;;;;;;22.60;22.60;;;;;16.15;42.59;99382.97;5049905;28;8890;-78
2022/05/04 00:26:29;;;;;;;;;18.80;18.20;;;;;16.12;42.52;99380.41;5015421;28;8854;-77
2022/05/04 00:28:59;;;;;;;;;17.60;17.00;;;;;16.11;41.82;99378.69;5031816;28;8850;-79
2022/05/04 00:31:28;;;;;;;;;17.80;17.80;;;;;16.14;41.58;99386.50;5034516;28;8850;-76
2022/05/04 00:33:56;;;;;;;;;16.00;16.00;;;;;16.14;41.47;99381.22;5051960;28;8850;-77
2022/05/04 00:36:26;;;;;;;;;19.20;16.00;;;;;16.06;41.55;99388.47;5031532;28;10093;-76
2022/05/04 00:38:54;;;;;;;;;19.40;17.00;;;;;15.87;42.27;99391.56;5015241;28;8846;-76
2022/05/04 00:41:23;;;;;;;;;17.60;14.40;;;;;15.96;41.89;99380.81;5030987;28;8857;-76
2022/05/04 00:43:53;;;;;;;;;15.20;15.20;;;;;16.02;41.94;99374.53;5031724;28;9759;-77
2022/05/04 00:46:23;;;;;;;;;19.80;17.40;;;;;16.06;42.50;99370.91;5048059;28;8947;-77
2022/05/04 00:48:53;;;;;;;;;18.40;16.80;;;;;15.98;42.00;99380.78;5031288;28;8878;-77
2022/05/04 00:51:22;;;;;;;;;16.80;16.80;;;;;15.78;42.59;99378.63;5031027;28;8901;-75
2022/05/04 00:53:51;;;;;;;;;20.60;17.80;;;;;15.63;42.92;99379.81;5047893;28;8881;-76
2022/05/04 00:56:20;;;;;;;;;14.80;14.60;;;;;15.30;43.77;99374.47;5030878;28;8904;-76
2022/05/04 00:58:56;;;;;;;;;18.40;16.40;;;;;15.24;44.43;99374.59;5049496;28;9000;-77
2022/05/04 01:01:28;;;;;;;;;18.40;16.80;;;;;15.14;44.20;99375.69;5032291;28;8885;-75
2022/05/04 01:03:59;;;;;;;;;15.40;15.20;;;;;15.11;44.09;99381.03;5043020;28;8961;-77
2022/05/04 01:06:28;;;;;;;;;15.00;15.00;;;;;15.28;43.65;99375.41;5048221;28;8843;-77
2022/05/04 01:08:57;;;;;;;;;14.00;13.80;;;;;15.35;43.69;99382.25;5049875;28;8919;-74
2022/05/04 01:11:26;;;;;;;;;14.40;13.60;;;;;15.48;43.58;99381.06;5050098;28;8859;-75
2022/05/04 01:13:59;;;;;;;;;17.00;15.00;;;;;15.54;43.19;99377.44;5053001;28;8828;-77
2022/05/04 01:16:31;;;;;;;;;18.80;18.80;;;;;15.53;43.30;99383.59;5066887;28;8837;-75
2022/05/04 01:19:00;;;;;;;;;15.20;14.60;;;;;15.42;43.84;99381.19;5050355;28;8840;-76
2022/05/04 01:21:29;;;;;;;;;16.00;15.60;;;;;15.50;43.41;99391.53;5050842;28;8953;-76
2022/05/04 01:24:00;;;;;;;;;15.80;15.40;;;;;15.57;43.30;99395.75;5049430;28;8858;-77
2022/05/04 01:26:29;;;;;;;;;16.60;16.60;;;;;15.50;43.41;99392.41;5067059;28;8856;-80
2022/05/04 01:28:58;;;;;;;;;16.80;15.40;;;;;15.54;43.46;99390.59;5067017;28;8866;-76
2022/05/04 01:31:26;;;;;;;;;13.20;13.20;;;;;15.60;43.31;99390.44;5033236;28;8838;-78
2022/05/04 01:33:56;;;;;;;;;16.40;15.20;;;;;15.66;43.17;99392.91;5033656;28;8945;-79
2022/05/04 01:36:25;;;;;;;;;15.20;14.20;;;;;15.71;43.15;99388.41;5049999;28;8838;-79
2022/05/04 01:38:53;;;;;;;;;18.40;16.00;;;;;15.71;43.13;99390.19;5050289;28;8852;-76
2022/05/04 01:44:10;;;;;;;;;15.20;15.20;;;;;15.83;42.92;99391.69;5049740;28;8855;-77
2022/05/04 01:46:39;;;;;;;;;17.00;17.00;;;;;15.86;42.95;99397.72;5029519;28;8850;-75
2022/05/04 01:49:07;;;;;;;;;17.60;16.80;;;;;15.90;42.75;99391.50;5048702;28;8972;-76
2022/05/04 01:51:36;;;;;;;;;15.20;14.60;;;;;15.93;42.82;99388.75;4997166;28;8851;-76
2022/05/04 01:54:05;;;;;;;;;18.00;18.00;;;;;15.95;42.87;99394.88;5047468;28;8839;-76
2022/05/04 01:56:35;;;;;;;;;16.60;15.20;;;;;15.94;43.10;99393.13;5063578;28;8859;-76
2022/05/04 01:59:03;;;;;;;;;17.00;16.00;;;;;15.95;42.91;99394.88;5045176;28;8871;-75
2022/05/04 02:01:33;;;;;;;;;17.40;14.80;;;;;15.96;42.70;99396.59;5069493;28;8913;-77
2022/05/04 02:04:02;;;;;;;;;18.40;15.60;;;;;15.95;43.20;99400.13;5051211;28;8850;-79
2022/05/04 02:06:31;;;;;;;;;12.20;12.20;;;;;15.95;43.04;99401.88;5048348;28;8871;-76
2022/05/04 02:09:00;;;;;;;;;15.20;15.20;;;;;15.92;43.33;99402.81;5047388;28;8850;-76
2022/05/04 02:11:32;;;;;;;;;15.60;15.00;;;;;15.88;42.93;99395.91;5048366;28;8957;-77
2022/05/04 02:14:02;;;;;;;;;16.80;16.80;;;;;15.88;43.15;99388.03;5047153;28;10072;-77
2022/05/04 02:16:31;;;;;;;;;14.40;13.60;;;;;15.87;43.11;99390.69;5048961;28;8851;-78
2022/05/04 02:19:00;;;;;;;;;17.20;15.00;;;;;15.84;43.36;99385.50;5047407;28;8874;-77
2022/05/04 02:21:29;;;;;;;;;17.40;15.00;;;;;15.82;43.54;99393.41;4981015;28;8859;-77
2022/05/04 02:23:58;;;;;;;;;15.00;15.00;;;;;15.84;43.32;99396.03;5030140;28;8949;-77
2022/05/04 02:26:26;;;;;;;;;16.60;14.80;;;;;15.83;43.51;99404.81;5031154;28;9644;-76
2022/05/04 02:28:55;;;;;;;;;17.00;16.80;;;;;15.82;43.48;99403.94;5047923;28;8835;-77
2022/05/04 02:31:25;;;;;;;;;14.00;13.40;;;;;15.82;43.54;99403.94;5063148;28;9008;-77
2022/05/04 02:33:54;;;;;;;;;16.80;15.00;;;;;15.83;43.38;99404.81;4997483;28;8835;-79
2022/05/04 02:39:08;;;;;;;;;14.40;13.00;;;;;15.84;43.39;99404.78;5046707;28;8932;-78
2022/05/04 02:41:37;;;;;;;;;13.80;13.40;;;;;15.84;43.32;99403.91;5046765;28;8878;-79
2022/05/04 02:44:05;;;;;;;;;16.40;14.60;;;;;15.84;43.27;99407.44;5030508;28;8959;-75
2022/05/04 02:46:35;;;;;;;;;15.00;14.80;;;;;15.81;43.37;99401.38;5063290;28;8855;-78
2022/05/04 02:49:04;;;;;;;;;20.20;19.80;;;;;15.77;43.61;99406.69;5046378;28;8831;-76
2022/05/04 02:51:33;;;;;;;;;15.80;15.80;;;;;15.76;43.58;99402.34;5051170;28;8839;-76
2022/05/04 02:54:03;;;;;;;;;13.00;12.40;;;;;15.75;43.45;99399.75;5000178;28;8856;-78
2022/05/04 02:56:32;;;;;;;;;15.60;13.40;;;;;15.72;43.63;99402.41;5066656;28;8844;-78
2022/05/04 02:59:01;;;;;;;;;18.80;17.20;;;;;15.69;43.91;99405.09;5068031;28;8977;-76
2022/05/04 03:04:18;;;;;;;;;19.40;15.60;;;;;15.67;43.90;99409.53;5050244;28;8931;-77
2022/05/04 03:06:47;;;;;;;;;16.20;15.20;;;;;15.62;44.14;99407.03;5046978;28;9047;-80
2022/05/04 03:09:15;;;;;;;;;16.60;14.60;;;;;15.64;44.07;99407.84;5031981;28;9564;-78
2022/05/04 03:11:56;;;;;;;;;14.60;14.40;;;;;15.60;43.86;99409.69;5017003;28;8863;-78
2022/05/04 03:14:26;;;;;;;;;14.60;14.60;;;;;15.58;43.72;99411.50;5050941;28;8835;-77
2022/05/04 03:16:56;;;;;;;;;14.20;14.00;;;;;15.55;44.06;99413.31;5050423;28;8897;-76
2022/05/04 03:19:27;;;;;;;;;14.40;13.60;;;;;15.50;44.26;99415.19;5064264;28;8936;-76
2022/05/04 03:21:55;;;;;;;;;16.00;14.80;;;;;15.54;44.07;99414.25;5070348;28;9696;-75
2022/05/04 03:24:24;;;;;;;;;15.20;15.20;;;;;15.54;44.21;99422.13;5071010;28;8936;-77
2022/05/04 03:26:52;;;;;;;;;18.80;18.20;;;;;15.56;44.03;99422.94;5019148;28;8868;-77
2022/05/04 03:29:21;;;;;;;;;17.20;17.20;;;;;15.53;44.24;99413.34;5003251;28;8863;-76
2022/05/04 03:31:49;;;;;;;;;17.40;15.00;;;;;15.56;44.06;99426.44;5066080;28;8843;-78
2022/05/04 03:34:18;;;;;;;;;17.00;16.00;;;;;15.58;44.06;99429.88;5033188;28;8869;-77
2022/05/04 03:36:48;;;;;;;;;19.00;17.80;;;;;15.60;44.18;99430.72;5069970;28;8866;-77
2022/05/04 03:39:17;;;;;;;;;12.60;12.60;;;;;15.62;44.16;99437.72;5070432;28;8864;-78
2022/05/04 03:41:46;;;;;;;;;16.00;15.20;;;;;15.63;44.04;99436.78;5070959;28;8852;-77
2022/05/04 03:44:16;;;;;;;;;18.00;16.20;;;;;15.66;44.05;99434.97;5003571;28;8840;-78
2022/05/04 03:46:47;;;;;;;;;14.40;13.40;;;;;15.69;44.31;99434.03;5070706;28;8836;-76
2022/05/04 03:49:18;;;;;;;;;19.20;17.60;;;;;15.73;44.13;99435.72;5069596;28;9026;-77
2022/05/04 03:51:48;;;;;;;;;15.40;14.80;;;;;15.74;43.99;99435.66;5018108;28;9674;-76
2022/05/04 03:54:17;;;;;;;;;17.40;17.40;;;;;15.79;43.70;99438.22;5069402;28;8848;-76
2022/05/04 03:56:45;;;;;;;;;19.40;17.00;;;;;15.82;44.05;99440.75;5018859;28;9613;-77
2022/05/04 03:59:14;;;;;;;;;17.40;15.40;;;;;15.88;43.73;99443.25;5031419;28;8832;-78
2022/05/04 04:01:43;;;;;;;;;16.80;16.00;;;;;15.93;43.37;99451.88;5031490;28;8959;-77
2022/05/04 04:04:12;;;;;;;;;22.80;20.00;;;;;15.99;43.75;99453.50;5029562;28;8850;-79
2022/05/04 04:06:41;;;;;;;;;18.40;16.60;;;;;16.06;43.55;99456.84;5011209;28;8861;-76
2022/05/04 04:09:11;;;;;;;;;16.60;13.40;;;;;16.11;43.36;99458.47;4994409;28;8898;-78
2022/05/04 04:11:40;;;;;;;;;18.00;17.60;;;;;16.19;43.12;99460.91;5011593;28;8939;-76
2022/05/04 04:14:09;;;;;;;;;32.25;29.75;;;;;16.25;43.44;99468.66;4946942;28;9618;-78
2022/05/04 04:16:38;;;;;;;;;40.25;35.75;;;;;16.35;42.73;99469.28;4967362;28;8913;-76
2022/05/04 04:19:09;;;;;;;;;22.80;21.00;;;;;16.40;42.63;99472.66;5011244;28;8890;-77
2022/05/04 04:21:52;;;;;;;;;22.00;19.40;;;;;16.48;42.60;99467.19;4995309;28;8865;-78
2022/05/04 04:24:23;;;;;;;;;83.00;72.75;;;;;16.55;42.75;99467.00;4995277;28;8861;-80
2022/05/04 04:26:53;;;;;;;;;28.50;28.50;;;;;16.66;42.21;99468.50;5016632;28;9861;-77
2022/05/04 04:29:21;;;;;;;;;35.80;30.80;;;;;16.73;42.31;99470.94;5032085;28;8966;-76
2022/05/04 04:31:50;;;;;;;;;48.25;39.75;;;;;16.83;41.92;99471.56;5068735;28;8855;-76
2022/05/04 04:34:19;;;;;;;;;23.20;22.60;;;;;16.91;41.91;99476.63;5053345;28;8842;-79
2022/05/04 04:36:47;;;;;;;;;22.00;18.00;;;;;17.02;41.80;99478.97;5048464;28;8885;-77
2022/05/04 04:39:15;;;;;;;;;22.60;19.40;;;;;17.08;41.72;99469.09;5065487;28;8882;-78
2022/05/04 04:41:46;;;;;;;;;19.80;18.00;;;;;17.14;41.17;99474.22;5051184;28;8862;-77
2022/05/04 04:44:14;;;;;;;;;19.00;19.00;;;;;17.21;41.04;99474.91;5053063;28;9712;-75
2022/05/04 04:46:43;;;;;;;;;19.40;18.60;;;;;17.30;41.14;99482.53;5033141;28;9064;-80
2022/05/04 04:49:11;;;;;;;;;19.60;18.40;;;;;17.37;40.62;99482.34;5050394;28;8874;-79
2022/05/04 04:51:40;;;;;;;;;20.20;18.80;;;;;17.45;40.41;99480.38;5032333;28;8854;-78
2022/05/04 04:54:08;;;;;;;;;23.80;21.40;;;;;17.55;40.90;99481.81;5048681;28;8857;-77
2022/05/04 04:56:37;;;;;;;;;20.20;19.40;;;;;17.57;40.01;99484.41;4998721;28;8935;-77
2022/05/04 04:59:07;;;;;;;;;18.40;17.80;;;;;17.64;40.51;99485.94;5048786;28;8988;-80
2022/05/04 05:01:35;;;;;;;;;22.00;19.60;;;;;17.76;39.81;99480.28;5014945;28;8875;-78
2022/05/04 05:04:05;;;;;;;;;18.40;17.00;;;;;17.85;39.83;99487.09;5051621;28;8836;-78
2022/05/04 05:06:33;;;;;;;;;18.60;18.40;;;;;17.95;39.96;99488.50;5069955;28;9030;-75
2022/05/04 05:09:02;;;;;;;;;9.60;9.00;;;;;18.00;39.69;99483.97;5068245;28;8843;-77
2022/05/04 05:11:31;;;;;;;;;17.00;16.60;;;;;18.03;39.67;99491.75;5067794;28;8852;-80
2022/05/04 05:16:48;;;;;;;;;22.80;18.00;;;;;18.26;39.29;99493.69;5067352;28;8887;-77
2022/05/04 05:19:16;;;;;;;;;19.80;19.40;;;;;18.36;39.34;99501.31;5067095;28;10100;-76
2022/05/04 05:21:45;;;;;;;;;21.00;19.20;;;;;18.40;38.77;99492.34;5060215;28;9583;-78
2022/05/04 05:24:14;;;;;;;;;19.40;18.40;;;;;18.48;38.83;99500.88;5052561;28;8851;-76
2022/05/04 05:26:42;;;;;;;;;19.40;19.40;;;;;18.31;38.72;99504.06;5069051;28;8872;-78
2022/05/04 05:29:11;;;;;;;;;23.00;20.00;;;;;18.45;39.44;99503.59;5032999;28;8856;-76
2022/05/04 05:31:41;;;;;;;;;22.60;20.20;;;;;18.60;38.87;99499.59;5016367;28;8884;-80
2022/05/04 05:34:12;;;;;;;;;17.60;16.00;;;;;18.75;38.82;99503.47;5068751;28;8940;-83
2022/05/04 05:36:41;;;;;;;;;23.20;21.80;;;;;18.88;39.07;99503.06;5057577;28;8862;-71
2022/05/04 05:39:09;;;;;;;;;21.40;21.40;;;;;19.04;38.88;99503.34;5048555;28;8981;-73
2022/05/04 05:41:37;;;;;;;;;21.60;20.40;;;;;19.16;38.55;99504.69;5048246;28;8869;-75
2022/05/04 05:44:06;;;;;;;;;20.60;19.00;;;;;19.00;38.25;99509.69;5059591;28;8886;-72
2022/05/04 05:46:34;;;;;;;;;20.00;20.00;;;;;19.06;38.60;99511.25;5032842;28;8847;-70
2022/05/04 05:49:03;;;;;;;;;23.00;21.60;;;;;19.19;38.83;99515.16;5032471;28;8909;-74
2022/05/04 05:51:33;;;;;;;;;18.40;17.40;;;;;19.29;38.73;99515.69;5015972;28;8840;-77
2022/05/04 05:54:02;;;;;;;;;20.00;19.00;;;;;19.41;39.58;99520.53;5048332;28;8878;-74
2022/05/04 05:56:30;;;;;;;;;21.60;19.00;;;;;19.51;38.38;99517.50;5050878;28;8848;-75
2022/05/04 05:58:59;;;;;;;;;21.80;21.60;;;;;19.29;38.54;99511.25;5032472;28;8848;-74
2022/05/04 06:01:27;;;;;;;;;20.00;18.80;;;;;19.42;38.65;99505.50;5066476;28;8863;-75
2022/05/04 06:03:56;;;;;;;;;19.60;19.60;;;;;19.60;38.55;99517.16;5061749;28;8856;-75
2022/05/04 06:06:25;;;;;;;;;18.60;16.60;;;;;19.73;38.16;99520.25;5066443;28;8828;-74
2022/05/04 06:08:55;;;;;;;;;19.00;19.00;;;;;19.86;37.96;99521.50;5045994;28;8876;-75
2022/05/04 06:11:24;;;;;;;;;20.80;19.40;;;;;19.77;38.08;99516.56;5057475;28;8892;-74
2022/05/04 06:13:52;;;;;;;;;18.40;18.00;;;;;19.93;38.11;99527.41;5077097;28;8864;-75
2022/05/04 06:16:21;;;;;;;;;21.80;19.00;;;;;20.04;37.56;99520.78;5046285;28;8851;-75
2022/05/04 06:18:50;;;;;;;;;20.00;20.00;;;;;20.16;37.81;99523.84;5064419;28;8917;-73
2022/05/04 06:21:19;;;;;;;;;18.80;18.80;;;;;20.17;37.57;99525.56;5067002;28;8836;-76
2022/05/04 06:23:47;;;;;;;;;25.25;20.50;;;;;20.26;37.37;99522.53;5065689;28;8848;-74
2022/05/04 06:26:20;;;;;;;;;21.80;21.40;;;;;20.18;37.57;99527.31;5031333;28;9613;-75
2022/05/04 06:28:48;;;;;;;;;21.00;19.20;;;;;20.13;37.91;99527.50;5067975;28;8840;-73
2022/05/04 06:34:10;;;;;;;;;22.40;21.20;;;;;20.33;38.11;99537.25;5047609;28;8946;-75
2022/05/04 06:36:40;;;;;;;;;22.60;22.40;;;;;20.49;38.36;99533.97;5047989;28;9659;-75
2022/05/04 06:39:11;;;;;;;;;19.00;19.00;;;;;20.34;37.45;99535.47;5047962;28;8903;-76
2022/05/04 06:41:41;;;;;;;;;16.40;15.00;;;;;19.92;38.49;99544.22;5029303;28;8847;-75
2022/05/04 06:44:09;;;;;;;;;24.60;22.00;;;;;19.99;38.47;99530.66;5051365;28;8958;-74
2022/05/04 06:46:40;;;;;;;;;21.80;21.80;;;;;20.03;38.58;99528.78;5051933;28;8857;-74
2022/05/04 06:49:10;;;;;;;;;21.60;20.60;;;;;19.56;39.54;99539.38;5052014;28;8874;-73
2022/05/04 06:51:39;;;;;;;;;20.00;19.00;;;;;19.93;39.80;99543.31;5052060;28;8839;-75
2022/05/04 06:54:08;;;;;;;;;19.40;18.20;;;;;20.23;39.42;99534.13;5051797;28;8854;-75
2022/05/04 06:56:53;;;;;;;;;22.60;20.40;;;;;20.41;38.12;99534.28;5066950;28;8851;-75
2022/05/04 06:59:22;;;;;;;;;22.75;21.75;;;;;19.64;40.07;99539.94;5051462;28;8951;-74
2022/05/04 07:01:50;;;;;;;;;23.80;21.80;;;;;19.21;40.45;99538.91;5051359;28;8977;-76
2022/05/04 07:04:20;;;;;;;;;18.40;17.80;;;;;19.70;40.08;99534.44;5051930;28;8838;-74
2022/05/04 07:06:49;;;;;;;;;19.80;18.60;;;;;20.07;38.85;99538.31;5051601;28;8842;-75
2022/05/04 07:09:18;;;;;;;;;19.20;18.80;;;;;19.95;38.32;99534.38;5051625;28;8885;-74
2022/05/04 07:11:46;;;;;;;;;19.20;18.00;;;;;19.66;38.54;99538.97;5066620;28;8952;-75
2022/05/04 07:14:19;;;;;;;;;17.80;17.20;;;;;19.77;38.30;99546.53;5032540;28;8912;-74
2022/05/04 07:16:48;;;;;;;;;20.40;20.20;;;;;19.88;38.19;99550.56;5050099;28;9633;-74
2022/05/04 07:19:17;;;;;;;;;24.75;22.25;;;;;19.62;39.04;99547.97;4999458;28;8854;-76
2022/05/04 07:21:46;;;;;;;;;24.20;21.20;;;;;19.99;39.00;99551.84;5051311;28;8839;-74
2022/05/04 07:24:15;;;;;;;;;24.75;21.75;;;;;20.23;38.08;99543.88;5051276;28;9066;-75
2022/05/04 07:26:43;;;;;;;;;22.00;21.00;;;;;20.49;37.63;99553.41;5051275;28;8842;-75
2022/05/04 07:29:12;;;;;;;;;21.80;21.00;;;;;20.79;37.35;99543.34;5051393;28;8867;-74
2022/05/04 07:31:44;;;;;;;;;22.80;21.60;;;;;21.07;36.93;99550.09;5050697;28;8858;-75
2022/05/04 07:34:15;;;;;;;;;17.60;17.40;;;;;20.19;35.37;99558.16;5050786;28;8847;-75
2022/05/04 07:36:44;;;;;;;;;24.00;22.00;;;;;19.80;37.30;99554.34;5049333;28;8856;-72
2022/05/04 07:42:21;;;;;;;;;21.20;20.40;;;;;19.28;38.36;99567.72;5000120;28;8870;-75
2022/05/04 07:44:50;;;;;;;;;16.60;16.60;;;;;18.40;39.29;99574.22;5049704;28;8961;-72
2022/05/04 07:47:27;;;;;;;;;15.80;15.00;;;;;18.28;38.66;99576.31;5049841;28;8835;-75
2022/05/04 07:49:56;;;;;;;;;20.00;17.20;;;;;18.50;39.64;99581.75;5051015;28;8866;-74
2022/05/04 07:52:24;;;;;;;;;23.00;22.20;;;;;19.01;39.11;99579.25;5049127;28;8862;-73
2022/05/04 07:54:53;;;;;;;;;22.00;20.00;;;;;18.97;39.00;99575.84;5049357;28;8858;-74
2022/05/04 07:57:23;;;;;;;;;21.20;20.40;;;;;18.78;37.84;99587.94;5050104;28;8863;-74
2022/05/04 08:05:25;;;;;;;;;17.40;17.40;;;;;19.85;36.97;99585.94;5049074;28;8846;-74
2022/05/04 08:07:54;;;;;;;;;23.80;23.60;;;;;19.42;37.39;99585.72;4998346;28;8846;-73
2022/05/04 08:10:22;;;;;;;;;17.60;17.60;;;;;19.33;37.86;99586.03;5050042;28;8847;-74
2022/05/04 08:12:51;;;;;;;;;20.20;18.80;;;;;19.81;37.45;99585.19;5050154;28;8882;-74
2022/05/04 08:15:20;;;;;;;;;23.60;21.80;;;;;19.80;36.92;99578.16;5050413;28;8959;-76
2022/05/04 08:17:50;;;;;;;;;23.20;22.00;;;;;20.08;37.32;99584.19;5050049;28;8835;-75
2022/05/04 08:20:19;;;;;;;;;22.20;21.20;;;;;20.45;36.45;99586.22;5050233;28;9575;-75
2022/05/04 08:22:48;;;;;;;;;20.40;19.80;;;;;20.79;35.77;99579.56;5050275;28;8831;-75
2022/05/04 08:25:17;;;;;;;;;11.20;11.00;;;;;21.12;34.55;99576.41;4999482;28;8855;-74
2022/05/04 08:27:46;;;;;;;;;20.40;16.40;;;;;20.80;32.61;99581.31;5049809;28;8877;-75
2022/05/04 08:30:15;;;;;;;;;15.60;15.00;;;;;21.11;31.81;99582.63;5049952;28;8934;-74
2022/05/04 08:32:45;;;;;;;;;16.40;16.20;;;;;21.38;32.22;99584.09;5049700;28;8843;-74
2022/05/04 08:35:14;;;;;;;;;22.80;20.80;;;;;21.39;33.34;99582.28;5049437;28;8861;-74
2022/05/04 08:37:44;;;;;;;;;26.75;24.75;;;;;21.35;33.51;99584.22;5049297;28;8831;-75
2022/05/04 08:40:13;;;;;;;;;19.60;18.40;;;;;21.66;33.36;99588.16;5049697;28;9758;-75
2022/05/04 08:42:43;;;;;;;;;19.20;18.00;;;;;21.90;33.46;99580.03;5050010;28;9650;-74
2022/05/04 08:45:14;;;;;;;;;17.40;16.40;;;;;22.12;32.99;99582.53;5048457;28;8850;-74
2022/05/04 08:47:45;;;;;;;;;19.20;18.20;;;;;22.18;33.22;99583.09;5027078;28;8858;-73
2022/05/04 08:50:18;;;;;;;;;19.00;18.20;;;;;21.98;32.26;99586.69;5027214;28;8854;-74
2022/05/04 08:52:53;;;;;;;;;17.80;17.60;;;;;22.19;32.62;99581.28;5027279;28;8861;-76
2022/05/04 08:55:24;;;;;;;;;26.00;26.00;;;;;22.15;31.48;99580.56;5027075;28;8841;-75
2022/05/04 08:57:54;;;;;;;;;15.60;14.80;;;;;21.82;31.10;99584.84;5027070;28;8838;-75
2022/05/04 09:00:24;;;;;;;;;15.20;15.00;;;;;21.63;31.76;99593.63;5026620;28;8830;-74
2022/05/04 09:02:54;;;;;;;;;15.40;15.40;;;;;21.98;31.20;99589.34;5026504;28;8869;-75
2022/05/04 09:05:26;;;;;;;;;17.20;14.80;;;;;22.28;31.30;99583.53;5033441;28;8839;-74
2022/05/04 09:07:57;;;;;;;;;15.00;15.00;;;;;22.49;31.19;99575.47;5049645;28;8850;-74
2022/05/04 09:10:31;;;;;;;;;15.60;15.00;;;;;22.58;30.28;99583.81;5049253;28;8867;-74
2022/05/04 09:13:00;;;;;;;;;17.40;16.20;;;;;22.70;30.41;99582.38;5049501;28;8842;-76
2022/05/04 09:15:30;;;;;;;;;19.20;18.20;;;;;22.86;30.31;99587.78;5049577;28;8838;-75
2022/05/04 09:18:00;;;;;;;;;16.80;16.80;;;;;23.05;31.52;99593.06;5015108;28;8939;-74
2022/05/04 09:23:21;;;;;;;;;19.00;18.60;;;;;23.28;30.04;99586.53;5049014;28;8875;-76
2022/05/04 09:25:51;;;;;;;;;16.40;16.40;;;;;23.41;29.93;99578.75;5048917;28;8865;-75
2022/05/04 09:28:20;;;;;;;;;16.60;16.60;;;;;23.48;29.08;99576.66;5048896;28;8901;-77
2022/05/04 09:30:51;;;;;;;;;21.20;21.20;;;;;22.92;29.21;99576.81;5048825;28;8878;-75
2022/05/04 09:33:22;;;;;;;;;17.00;16.20;;;;;22.25;29.96;99589.00;5048602;28;8855;-75
2022/05/04 09:35:52;;;;;;;;;17.40;17.40;;;;;22.50;30.26;99578.03;5048531;28;8850;-75
2022/05/04 09:46:46;;;;;;;;;16.00;16.00;;;;;22.33;31.21;99570.91;5048627;28;8823;-74
2022/05/04 09:49:17;;;;;;;;;18.80;17.40;;;;;22.53;30.96;99566.38;5052277;28;8903;-74
2022/05/04 09:51:50;;;;;;;;;17.40;16.20;;;;;22.78;30.46;99563.38;5048307;28;8862;-75
2022/05/04 09:54:20;;;;;;;;;16.00;16.00;;;;;22.90;29.83;99561.88;5048727;28;9054;-75
2022/05/04 09:56:51;;;;;;;;;16.75;16.50;;;;;22.93;29.35;99562.59;5048719;28;8835;-75
2022/05/04 09:59:21;;;;;;;;;17.75;15.75;;;;;23.15;29.80;99564.16;5048659;28;8855;-75
2022/05/04 10:01:51;;;;;;;;;17.40;16.60;;;;;23.08;28.91;99560.09;5048559;28;8854;-74
2022/05/04 10:04:21;;;;;;;;;17.40;17.00;;;;;22.56;29.69;99558.28;5029749;28;8838;-74
2022/05/04 10:06:52;;;;;;;;;17.20;16.40;;;;;22.31;30.34;99555.97;5048314;28;8878;-74
2022/05/04 10:09:22;;;;;;;;;17.00;16.40;;;;;21.84;31.16;99548.44;5046466;28;8850;-76
2022/05/04 10:11:56;;;;;;;;;17.60;17.60;;;;;21.94;31.27;99549.72;5048587;28;8881;-75
2022/05/04 10:14:26;;;;;;;;;18.20;18.20;;;;;22.32;31.21;99549.72;5029417;28;8847;-75
2022/05/04 10:17:01;;;;;;;;;19.20;17.00;;;;;22.67;30.57;99541.78;5028819;28;8874;-76
2022/05/04 10:19:34;;;;;;;;;17.00;17.00;;;;;22.94;29.89;99537.69;5028838;28;8866;-75
2022/05/04 10:22:09;;;;;;;;;17.25;17.25;;;;;22.01;30.67;99543.19;5047702;28;8900;-74
2022/05/04 10:24:38;;;;;;;;;16.75;16.50;;;;;21.48;30.79;99541.25;5066085;28;8836;-76
2022/05/04 10:27:18;;;;;;;;;17.40;16.60;;;;;21.56;30.90;99533.78;5065212;28;8978;-76
2022/05/04 10:32:38;;;;;;;;;19.00;18.00;;;;;22.28;30.03;99532.19;5065268;28;8968;-75
2022/05/04 10:35:14;;;;;;;;;42.50;36.50;;;;;22.50;30.12;99530.22;5065435;28;8893;-74
2022/05/04 10:38:18;;;;;;;;;15.75;15.00;;;;;22.79;29.45;99522.53;5064851;28;8870;-76
2022/05/04 10:40:51;;;;;;;;;15.00;13.60;;;;;22.66;29.24;99530.28;5048009;28;8863;-75
2022/05/04 10:43:35;;;;;;;;;13.80;13.80;;;;;22.52;29.44;99516.84;5065220;28;8860;-75
2022/05/04 10:46:07;;;;;;;;;16.00;15.60;;;;;22.66;29.50;99516.13;5065033;28;8968;-74
2022/05/04 10:48:36;;;;;;;;;15.40;15.20;;;;;22.98;28.88;99515.31;5065186;28;8867;-76
2022/05/04 10:51:12;;;;;;;;;16.00;16.00;;;;;23.07;29.33;99515.84;5048599;28;8880;-75
2022/05/04 10:53:50;;;;;;;;;17.80;14.20;;;;;23.31;28.66;99498.56;5015378;28;8910;-75
2022/05/04 10:56:21;;;;;;;;;17.25;16.50;;;;;23.23;28.35;99507.88;5052605;28;8839;-76
2022/05/04 10:58:59;;;;;;;;;23.50;23.50;;;;;23.03;29.12;99506.28;5046376;28;8986;-76
2022/05/04 11:01:30;;;;;;;;;16.20;15.00;;;;;23.48;28.39;99500.31;5047632;28;9636;-76
2022/05/04 11:04:22;;;;;;;;;18.75;17.75;;;;;23.87;28.68;99501.72;5047531;28;8850;-75
2022/05/04 11:06:56;;;;;;;;;19.60;19.00;;;;;23.92;27.30;99498.81;5047566;28;8846;-75
2022/05/04 11:09:31;;;;;;;;;18.20;16.60;;;;;24.03;28.16;99495.56;5028636;28;8900;-75
2022/05/04 11:12:02;;;;;;;;;17.80;17.40;;;;;24.30;28.11;99496.59;5028775;28;8850;-76
2022/05/04 11:14:32;;;;;;;;;19.20;18.60;;;;;24.44;26.90;99493.16;5047105;28;8839;-75
2022/05/04 11:17:03;;;;;;;;;23.50;22.25;;;;;24.60;27.37;99505.63;5046131;28;8835;-75
2022/05/04 11:19:32;;;;;;;;;18.20;16.80;;;;;23.93;28.21;99496.06;5047003;28;8969;-75
2022/05/04 11:22:02;;;;;;;;;18.00;18.00;;;;;23.15;29.09;99502.97;5047506;28;8866;-74
2022/05/04 11:24:32;;;;;;;;;16.20;16.20;;;;;23.42;28.85;99487.34;5047236;28;10286;-75
2022/05/04 11:27:00;;;;;;;;;17.40;17.00;;;;;23.25;29.11;99487.38;5047276;28;8854;-75
2022/05/04 11:29:30;;;;;;;;;17.40;16.40;;;;;23.56;28.57;99486.59;5046426;28;8862;-75
2022/05/04 11:32:01;;;;;;;;;14.00;14.00;;;;;23.61;28.17;99489.84;5050964;28;9616;-75
2022/05/04 11:34:32;;;;;;;;;15.80;13.80;;;;;23.11;28.85;99478.34;5051006;28;8830;-76
2022/05/04 11:37:04;;;;;;;;;15.40;14.40;;;;;22.48;29.55;99484.25;5050768;28;8859;-77
2022/05/04 11:39:35;;;;;;;;;18.75;18.50;;;;;22.56;29.40;99486.50;5050717;28;8953;-75
2022/05/04 11:42:07;;;;;;;;;16.60;16.60;;;;;22.75;28.80;99481.09;5050907;28;8850;-74
2022/05/04 11:44:38;;;;;;;;;19.75;17.25;;;;;22.98;28.97;99480.75;5048464;28;8906;-75
2022/05/04 11:47:08;;;;;;;;;14.80;14.80;;;;;22.92;28.86;99475.75;5051152;28;8839;-75
2022/05/04 11:49:36;;;;;;;;;16.60;16.60;;;;;23.40;29.46;99475.91;5016207;28;8961;-76
2022/05/04 11:52:05;;;;;;;;;18.60;16.20;;;;;24.00;28.90;99467.25;5050608;28;8878;-76
2022/05/04 11:54:36;;;;;;;;;20.40;17.40;;;;;24.63;27.11;99465.41;5050644;28;8846;-76
2022/05/04 11:57:12;;;;;;;;;16.40;16.00;;;;;25.30;26.08;99468.47;5050563;28;8855;-75
2022/05/04 11:59:41;;;;;;;;;15.60;15.60;;;;;25.61;25.08;99471.84;5016296;28;8997;-74
2022/05/04 12:02:10;;;;;;;;;20.80;19.00;;;;;25.76;24.69;99468.19;5066445;28;8859;-75
2022/05/04 12:04:39;;;;;;;;;17.20;17.20;;;;;25.71;24.39;99456.97;5050455;28;8969;-75
2022/05/04 12:07:08;;;;;;;;;17.00;17.00;;;;;26.39;24.65;99458.72;5050694;28;8885;-76
2022/05/04 12:09:38;;;;;;;;;17.20;14.80;;;;;27.01;23.53;99450.03;4999697;28;8967;-76
2022/05/04 12:12:07;;;;;;;;;18.20;17.60;;;;;27.39;22.75;99454.53;5050224;28;8866;-75
2022/05/04 12:14:36;;;;;;;;;8.20;7.40;;;;;27.76;22.54;99445.63;5050388;28;8859;-75